Time;durP1;ratioP1;P1;durP2;ratioP2;P2;SDS_P1;SDS_P2;PMS_P1;PMS_P2;Temp;Humidity;BMP_temperature;BMP_pressure;BME280_temperature;BME280_humidity;BME280_pressure;Samples;Min_cycle;Max_cycle;Signal;HPM_P1;HPM_P2
2022/10/09 00:01:08;;;;;;;30.80;15.00;;;10.80;73.40;;;;;;4975216;28;21064;-76
2022/10/09 00:03:37;;;;;;;24.33;12.50;;;10.80;73.30;;;;;;4978534;28;20880;-75
2022/10/09 00:06:07;;;;;;;25.77;12.37;;;10.70;73.30;;;;;;4979477;28;20450;-76
2022/10/09 00:08:35;;;;;;;21.33;10.03;;;10.70;73.30;;;;;;4978302;28;20477;-76
2022/10/09 00:11:05;;;;;;;17.17;8.17;;;10.70;73.20;;;;;;4974089;28;20979;-75
2022/10/09 00:13:34;;;;;;;12.83;6.73;;;10.70;73.20;;;;;;4978275;28;21506;-76
2022/10/09 00:16:04;;;;;;;14.20;7.27;;;10.70;73.20;;;;;;4977031;28;21148;-75
2022/10/09 00:18:32;;;;;;;21.33;7.63;;;10.70;73.30;;;;;;4979330;28;21037;-75
2022/10/09 00:21:00;;;;;;;17.13;7.80;;;10.70;73.30;;;;;;4979250;28;20477;-76
2022/10/09 00:23:28;;;;;;;32.13;13.90;;;10.70;73.30;;;;;;4974601;28;20927;-75
2022/10/09 00:25:58;;;;;;;129.90;50.90;;;10.70;73.30;;;;;;4976686;28;21169;-76
2022/10/09 00:28:28;;;;;;;242.23;96.00;;;10.70;73.30;;;;;;4976063;28;21061;-76
2022/10/09 00:30:57;;;;;;;88.70;39.27;;;10.60;73.40;;;;;;4976092;28;20450;-76
2022/10/09 00:33:25;;;;;;;55.80;24.73;;;10.60;73.50;;;;;;4992055;28;20496;-76
2022/10/09 00:35:53;;;;;;;40.40;15.10;;;10.60;73.60;;;;;;4977738;28;20457;-76
2022/10/09 00:38:21;;;;;;;56.57;23.93;;;10.70;73.70;;;;;;4994465;28;20481;-76
2022/10/09 00:40:49;;;;;;;30.27;15.67;;;10.70;73.80;;;;;;4977479;28;20576;-75
2022/10/09 00:43:19;;;;;;;64.13;27.43;;;10.70;73.90;;;;;;4977339;28;20455;-77
2022/10/09 00:45:53;;;;;;;81.57;34.20;;;10.70;74.00;;;;;;4977935;28;20462;-77
2022/10/09 00:48:23;;;;;;;88.30;33.53;;;10.70;73.80;;;;;;4982518;28;20568;-76
2022/10/09 00:50:55;;;;;;;73.47;31.63;;;10.70;73.90;;;;;;4973168;28;20459;-77
2022/10/09 00:53:26;;;;;;;42.27;18.20;;;10.70;74.00;;;;;;4982485;28;20476;-77
2022/10/09 00:55:55;;;;;;;38.17;18.37;;;10.60;74.00;;;;;;4976428;28;20458;-76
2022/10/09 00:58:24;;;;;;;28.47;14.17;;;10.60;74.20;;;;;;4982880;28;20473;-77
2022/10/09 01:00:52;;;;;;;30.33;14.13;;;10.60;74.30;;;;;;4975510;28;21043;-77
2022/10/09 01:03:21;;;;;;;27.23;12.90;;;10.60;74.40;;;;;;4974320;28;20477;-76
2022/10/09 01:05:58;;;;;;;51.87;22.80;;;10.50;74.40;;;;;;4977707;28;20465;-76
2022/10/09 01:08:31;;;;;;;30.23;12.70;;;10.50;74.60;;;;;;4975251;28;20629;-75
2022/10/09 01:11:04;;;;;;;25.20;12.97;;;10.50;74.60;;;;;;4975576;28;21457;-76
2022/10/09 01:13:42;;;;;;;30.33;10.60;;;10.50;74.70;;;;;;4977952;28;20450;-75
2022/10/09 01:16:16;;;;;;;22.87;10.87;;;10.50;74.80;;;;;;4977378;28;20520;-77
2022/10/09 01:18:57;;;;;;;30.80;12.40;;;10.50;74.80;;;;;;4978765;28;20516;-75
2022/10/09 01:21:31;;;;;;;27.77;11.73;;;10.50;74.90;;;;;;4976950;28;20478;-76
2022/10/09 01:24:29;;;;;;;24.00;12.23;;;10.50;75.00;;;;;;4977879;28;20604;-77
2022/10/09 01:27:07;;;;;;;34.73;12.27;;;10.50;75.30;;;;;;4964441;28;20516;-77
2022/10/09 01:29:38;;;;;;;27.23;10.07;;;10.50;75.50;;;;;;4974898;28;20481;-77
2022/10/09 01:32:09;;;;;;;25.30;10.80;;;10.60;75.50;;;;;;4976036;28;20457;-77
2022/10/09 01:34:38;;;;;;;33.60;12.20;;;10.60;75.60;;;;;;4975596;28;20470;-76
2022/10/09 01:37:08;;;;;;;26.87;11.03;;;10.60;75.70;;;;;;4974954;28;20474;-76
2022/10/09 01:39:38;;;;;;;22.17;10.13;;;10.60;75.60;;;;;;4975397;28;20501;-77
2022/10/09 01:42:08;;;;;;;17.80;8.80;;;10.60;75.80;;;;;;4991160;28;20549;-76
2022/10/09 01:44:36;;;;;;;13.90;7.50;;;10.60;75.90;;;;;;4976934;28;20569;-77
2022/10/09 01:47:05;;;;;;;15.10;9.30;;;10.60;76.00;;;;;;4975616;28;20461;-77
2022/10/09 01:49:50;;;;;;;13.63;6.30;;;10.70;76.10;;;;;;4981166;28;20482;-76
2022/10/09 01:52:30;;;;;;;11.90;6.80;;;10.70;76.20;;;;;;4978635;28;20502;-77
2022/10/09 01:55:08;;;;;;;9.90;5.70;;;10.70;76.20;;;;;;4973970;28;20454;-76
2022/10/09 01:57:47;;;;;;;14.90;6.17;;;10.70;76.40;;;;;;4977448;28;20463;-77
2022/10/09 02:00:15;;;;;;;10.43;5.80;;;10.70;76.50;;;;;;4977976;28;21257;-76
2022/10/09 02:02:44;;;;;;;10.50;5.60;;;10.70;76.50;;;;;;4976897;28;20522;-76
2022/10/09 02:05:19;;;;;;;8.17;4.90;;;10.70;76.60;;;;;;4977397;28;20457;-76
2022/10/09 02:07:47;;;;;;;19.60;6.33;;;10.70;76.40;;;;;;4976705;28;20539;-76
2022/10/09 02:10:16;;;;;;;17.43;6.67;;;10.60;76.50;;;;;;4976103;28;20457;-76
2022/10/09 02:12:53;;;;;;;16.20;7.57;;;10.60;76.60;;;;;;4991307;28;21136;-76
2022/10/09 02:15:24;;;;;;;22.80;6.40;;;10.60;76.70;;;;;;4974950;28;20457;-76
2022/10/09 02:17:55;;;;;;;13.93;5.63;;;10.60;76.70;;;;;;4993218;28;20473;-75
2022/10/09 02:20:27;;;;;;;12.80;6.27;;;10.60;76.80;;;;;;4977555;28;21120;-75
2022/10/09 02:22:58;;;;;;;9.97;5.70;;;10.60;76.80;;;;;;4976885;28;20547;-74
2022/10/09 02:25:26;;;;;;;11.37;6.17;;;10.60;76.90;;;;;;4980353;28;20516;-75
2022/10/09 02:27:56;;;;;;;9.93;6.13;;;10.60;76.90;;;;;;4975885;28;20509;-76
2022/10/09 02:30:27;;;;;;;10.20;5.63;;;10.60;76.90;;;;;;4977992;28;20458;-76
2022/10/09 02:32:55;;;;;;;7.47;4.80;;;10.60;77.00;;;;;;4976418;28;20533;-77
2022/10/09 02:35:23;;;;;;;7.13;4.43;;;10.60;77.00;;;;;;4973405;28;20597;-76
2022/10/09 02:37:51;;;;;;;8.00;4.37;;;10.60;77.10;;;;;;4974958;28;20573;-76
2022/10/09 02:40:19;;;;;;;9.10;4.80;;;10.60;77.10;;;;;;4976305;28;20514;-76
2022/10/09 02:42:47;;;;;;;6.07;3.90;;;10.60;77.10;;;;;;4973537;28;20524;-76
2022/10/09 02:45:16;;;;;;;7.07;4.37;;;10.60;77.10;;;;;;4976270;28;20524;-75
2022/10/09 02:47:44;;;;;;;6.63;4.40;;;10.60;77.10;;;;;;4977548;28;20524;-76
2022/10/09 02:50:12;;;;;;;6.70;4.43;;;10.60;77.10;;;;;;4981401;28;20466;-75
2022/10/09 02:52:40;;;;;;;17.77;5.70;;;10.60;77.10;;;;;;4980580;28;20458;-76
2022/10/09 02:55:08;;;;;;;22.90;5.63;;;10.60;77.10;;;;;;4980075;28;20461;-76
2022/10/09 02:57:36;;;;;;;16.50;4.93;;;10.60;77.10;;;;;;4978733;28;20461;-76
2022/10/09 03:00:05;;;;;;;11.57;5.80;;;10.50;77.10;;;;;;4979502;28;21052;-76
2022/10/09 03:02:34;;;;;;;8.10;4.80;;;10.50;77.10;;;;;;4978589;28;20485;-76
2022/10/09 03:05:03;;;;;;;8.67;4.90;;;10.50;77.10;;;;;;4980844;28;21294;-76
2022/10/09 03:07:31;;;;;;;10.90;5.07;;;10.40;77.10;;;;;;4977525;28;20466;-76
2022/10/09 03:10:00;;;;;;;13.20;6.47;;;10.40;77.10;;;;;;4978252;28;20548;-76
2022/10/09 03:12:28;;;;;;;15.70;5.10;;;10.30;77.10;;;;;;4979721;28;20850;-76
2022/10/09 03:14:56;;;;;;;15.33;6.10;;;10.30;77.20;;;;;;4978566;28;20986;-77
2022/10/09 03:17:24;;;;;;;11.73;5.60;;;10.20;77.20;;;;;;4981765;28;20593;-77
2022/10/09 03:19:53;;;;;;;14.13;5.37;;;10.20;77.30;;;;;;4982088;28;20551;-77
2022/10/09 03:22:22;;;;;;;9.10;5.33;;;10.20;77.40;;;;;;4980953;28;20861;-76
2022/10/09 03:24:50;;;;;;;10.43;5.90;;;10.20;77.50;;;;;;4978465;28;20462;-76
2022/10/09 03:27:18;;;;;;;8.90;5.17;;;10.20;77.50;;;;;;4979150;28;20895;-77
2022/10/09 03:29:46;;;;;;;16.00;5.80;;;10.20;77.50;;;;;;4981835;28;21054;-77
2022/10/09 03:32:14;;;;;;;10.50;5.80;;;10.20;77.50;;;;;;4978374;28;20907;-76
2022/10/09 03:34:42;;;;;;;16.97;6.00;;;10.20;77.50;;;;;;4978120;28;20541;-76
2022/10/09 03:37:11;;;;;;;18.63;5.37;;;10.10;77.50;;;;;;4976730;28;20586;-76
2022/10/09 03:39:39;;;;;;;12.00;5.30;;;10.10;77.60;;;;;;4978793;28;20501;-76
2022/10/09 03:42:07;;;;;;;16.47;5.30;;;10.10;77.50;;;;;;4978180;28;20555;-77
2022/10/09 03:44:35;;;;;;;10.17;5.10;;;10.10;77.70;;;;;;4981092;28;20458;-76
2022/10/09 03:47:03;;;;;;;13.30;5.67;;;10.10;77.60;;;;;;4978395;28;21061;-76
2022/10/09 03:49:31;;;;;;;22.73;4.90;;;10.10;77.60;;;;;;4977768;28;21095;-76
2022/10/09 03:51:59;;;;;;;8.57;4.60;;;10.00;77.70;;;;;;4978219;28;20466;-77
2022/10/09 03:54:28;;;;;;;12.77;5.10;;;10.00;77.70;;;;;;4977434;28;20461;-76
2022/10/09 03:56:56;;;;;;;9.23;5.03;;;10.00;77.90;;;;;;4978619;28;20492;-76
2022/10/09 03:59:25;;;;;;;11.53;5.27;;;10.00;77.80;;;;;;4993119;28;20501;-76
2022/10/09 04:01:53;;;;;;;30.23;5.50;;;10.00;77.70;;;;;;4983536;28;20481;-76
2022/10/09 04:04:21;;;;;;;13.03;4.60;;;10.00;77.70;;;;;;4974467;28;20924;-76
2022/10/09 04:06:49;;;;;;;21.10;5.10;;;9.90;77.80;;;;;;4976547;28;20486;-75
2022/10/09 04:09:17;;;;;;;12.80;4.50;;;9.90;77.50;;;;;;4977154;28;20852;-76
2022/10/09 04:11:46;;;;;;;9.73;5.13;;;9.70;77.50;;;;;;4980687;28;20465;-76
2022/10/09 04:14:14;;;;;;;14.27;5.43;;;9.70;77.80;;;;;;4978216;28;20459;-76
2022/10/09 04:16:42;;;;;;;10.93;4.77;;;9.60;78.10;;;;;;4978069;28;20471;-76
2022/10/09 04:19:10;;;;;;;12.53;5.20;;;9.60;78.00;;;;;;4979848;28;20569;-76
2022/10/09 04:21:38;;;;;;;8.43;5.03;;;9.60;78.10;;;;;;4978461;28;20512;-76
2022/10/09 04:24:07;;;;;;;9.07;4.80;;;9.60;78.10;;;;;;4979044;28;21014;-75
2022/10/09 04:26:35;;;;;;;14.87;5.50;;;9.60;78.20;;;;;;4977720;28;20544;-75
2022/10/09 04:29:04;;;;;;;12.00;4.60;;;9.50;78.00;;;;;;4975043;28;20522;-76
2022/10/09 04:31:32;;;;;;;7.40;3.97;;;9.50;78.10;;;;;;4979208;28;20470;-75
2022/10/09 04:34:01;;;;;;;8.73;4.07;;;9.40;78.00;;;;;;4972598;28;20459;-75
2022/10/09 04:36:28;;;;;;;8.20;4.77;;;9.40;78.20;;;;;;4976521;28;20959;-76
2022/10/09 04:38:56;;;;;;;6.07;3.53;;;9.40;78.20;;;;;;4976026;28;21311;-76
2022/10/09 04:41:24;;;;;;;12.63;4.00;;;9.40;78.30;;;;;;4976611;28;20461;-77
2022/10/09 04:43:54;;;;;;;11.87;4.33;;;9.50;78.30;;;;;;4977446;28;20489;-75
2022/10/09 04:46:24;;;;;;;6.47;4.00;;;9.50;78.20;;;;;;4975903;28;20469;-77
2022/10/09 04:48:52;;;;;;;7.60;4.07;;;9.40;78.10;;;;;;4975989;28;20967;-76
2022/10/09 04:51:20;;;;;;;9.70;4.03;;;9.40;78.00;;;;;;4978044;28;21079;-76
2022/10/09 04:53:48;;;;;;;6.70;3.65;;;9.40;78.20;;;;;;4977729;28;20955;-77
2022/10/09 04:56:18;;;;;;;5.70;3.60;;;9.40;78.20;;;;;;4978105;28;20262;-75
2022/10/09 04:58:47;;;;;;;9.13;4.53;;;9.40;78.20;;;;;;4982350;28;20494;-77
2022/10/09 05:01:18;;;;;;;16.63;4.20;;;9.40;78.20;;;;;;4976303;28;20463;-75
2022/10/09 05:03:48;;;;;;;17.40;4.55;;;9.40;78.10;;;;;;4976090;28;20472;-76
2022/10/09 05:06:17;;;;;;;10.30;5.45;;;9.40;78.00;;;;;;4982143;28;20215;-76
2022/10/09 05:08:45;;;;;;;15.88;6.22;;;9.30;77.90;;;;;;4978673;28;20227;-76
2022/10/09 05:11:16;;;;;;;9.30;5.15;;;9.30;77.90;;;;;;4979648;28;20327;-75
2022/10/09 05:13:47;;;;;;;12.73;4.90;;;9.20;77.90;;;;;;4978209;28;20207;-76
2022/10/09 05:16:17;;;;;;;9.03;4.93;;;9.20;78.10;;;;;;4978013;28;20470;-75
2022/10/09 05:18:48;;;;;;;11.18;4.80;;;9.20;78.40;;;;;;4975733;28;20493;-75
2022/10/09 05:21:17;;;;;;;7.63;4.72;;;9.20;78.50;;;;;;4978921;28;20266;-76
2022/10/09 05:23:45;;;;;;;9.10;4.68;;;9.20;78.50;;;;;;4978169;28;20243;-76
2022/10/09 05:26:14;;;;;;;7.93;5.45;;;9.20;78.40;;;;;;4978938;28;20203;-75
2022/10/09 05:28:42;;;;;;;10.30;5.83;;;9.30;78.40;;;;;;4978752;28;20226;-76
2022/10/09 05:31:21;;;;;;;10.70;5.63;;;9.30;78.50;;;;;;4977483;28;20465;-76
2022/10/09 05:33:51;;;;;;;11.03;5.73;;;9.40;78.50;;;;;;4979180;28;20875;-75
2022/10/09 05:36:19;;;;;;;12.00;7.32;;;9.40;78.60;;;;;;4977589;28;20453;-75
2022/10/09 05:38:48;;;;;;;15.50;6.93;;;9.50;78.50;;;;;;4979477;28;20242;-76
2022/10/09 05:41:18;;;;;;;10.53;6.47;;;9.50;78.50;;;;;;4977834;28;20600;-75
2022/10/09 05:43:48;;;;;;;11.87;7.10;;;9.60;78.50;;;;;;4979355;28;20902;-76
2022/10/09 05:46:17;;;;;;;10.33;5.97;;;9.60;78.50;;;;;;4979045;28;20517;-76
2022/10/09 05:48:50;;;;;;;15.27;5.90;;;9.60;78.50;;;;;;4973596;28;20482;-76
2022/10/09 05:51:21;;;;;;;12.97;6.43;;;9.60;78.40;;;;;;4976869;28;20465;-75
2022/10/09 05:53:50;;;;;;;14.80;7.00;;;9.60;78.40;;;;;;4978923;28;20454;-77
2022/10/09 05:56:19;;;;;;;13.30;6.77;;;9.60;78.40;;;;;;4978617;28;20463;-77
2022/10/09 05:58:50;;;;;;;16.87;7.70;;;9.70;78.50;;;;;;4977590;28;20566;-77
2022/10/09 06:01:20;;;;;;;16.50;6.10;;;9.70;78.50;;;;;;4975140;28;20466;-76
2022/10/09 06:03:50;;;;;;;13.67;6.77;;;9.70;78.40;;;;;;4977386;28;20469;-76
2022/10/09 06:06:21;;;;;;;23.08;7.60;;;9.70;78.40;;;;;;4992239;28;20462;-76
2022/10/09 06:08:50;;;;;;;11.23;6.40;;;9.70;78.40;;;;;;4979154;28;20759;-77
2022/10/09 06:11:20;;;;;;;16.67;7.57;;;9.70;78.50;;;;;;4976452;28;20281;-76
2022/10/09 06:13:49;;;;;;;12.03;5.97;;;9.70;78.60;;;;;;4973777;28;20450;-76
2022/10/09 06:16:17;;;;;;;10.50;6.28;;;9.70;78.50;;;;;;4978455;28;20462;-77
2022/10/09 06:18:47;;;;;;;12.77;6.28;;;9.70;78.60;;;;;;4976563;28;20235;-77
2022/10/09 06:21:16;;;;;;;9.90;5.57;;;9.70;78.60;;;;;;4984074;28;20786;-77
2022/10/09 06:23:49;;;;;;;14.97;6.00;;;9.70;78.50;;;;;;4978919;28;20453;-77
2022/10/09 06:26:18;;;;;;;17.20;6.70;;;9.70;78.40;;;;;;4977876;28;20877;-76
2022/10/09 06:28:46;;;;;;;11.30;6.20;;;9.60;78.40;;;;;;4976976;28;20482;-76
2022/10/09 06:31:16;;;;;;;9.30;6.07;;;9.50;78.50;;;;;;4976067;28;20466;-76
2022/10/09 06:33:46;;;;;;;10.70;7.03;;;9.60;78.70;;;;;;4994232;28;20552;-75
2022/10/09 06:36:16;;;;;;;11.07;6.20;;;9.60;78.90;;;;;;4979583;28;21085;-77
2022/10/09 06:38:46;;;;;;;10.70;6.30;;;9.60;78.90;;;;;;4979802;28;21025;-77
2022/10/09 06:41:16;;;;;;;9.50;5.00;;;9.70;78.90;;;;;;4978375;28;20544;-76
2022/10/09 06:43:49;;;;;;;9.30;6.03;;;9.70;79.00;;;;;;4980769;28;21029;-77
2022/10/09 06:46:18;;;;;;;13.13;7.17;;;9.80;79.10;;;;;;4981442;28;20498;-76
2022/10/09 06:48:46;;;;;;;12.93;6.73;;;9.80;79.00;;;;;;4985648;28;20491;-77
2022/10/09 06:51:16;;;;;;;12.60;7.93;;;9.80;78.90;;;;;;4978725;28;20569;-76
2022/10/09 06:53:47;;;;;;;18.03;8.50;;;9.80;78.80;;;;;;4982758;28;20548;-76
2022/10/09 06:56:16;;;;;;;12.57;6.83;;;9.80;78.90;;;;;;4981189;28;20477;-77
2022/10/09 06:58:45;;;;;;;22.93;13.33;;;9.80;78.90;;;;;;4979614;28;20528;-77
2022/10/09 07:01:14;;;;;;;53.57;28.20;;;9.80;78.80;;;;;;4979340;28;20477;-76
2022/10/09 07:03:45;;;;;;;34.63;23.50;;;9.70;78.60;;;;;;4976334;28;20536;-76
2022/10/09 07:06:14;;;;;;;26.33;12.60;;;9.60;78.70;;;;;;4978375;28;20478;-75
2022/10/09 07:08:44;;;;;;;16.90;9.77;;;9.50;78.80;;;;;;4978344;28;20893;-76
2022/10/09 07:11:16;;;;;;;16.30;9.50;;;9.50;78.90;;;;;;4979969;28;20865;-77
2022/10/09 07:13:44;;;;;;;14.87;11.10;;;9.50;79.20;;;;;;4979712;28;20680;-76
2022/10/09 07:16:12;;;;;;;16.00;9.77;;;9.50;79.30;;;;;;4981305;28;20466;-75
2022/10/09 07:18:40;;;;;;;28.40;12.43;;;9.60;79.50;;;;;;4980086;28;20901;-75
2022/10/09 07:21:09;;;;;;;12.33;7.33;;;9.60;79.40;;;;;;4985391;28;20465;-77
2022/10/09 07:23:37;;;;;;;20.43;8.77;;;9.60;79.40;;;;;;4981699;28;20531;-76
2022/10/09 07:26:11;;;;;;;12.87;7.67;;;9.60;79.30;;;;;;4975444;28;20481;-76
2022/10/09 07:28:41;;;;;;;14.57;8.70;;;9.60;79.50;;;;;;4978009;28;20485;-76
2022/10/09 07:31:10;;;;;;;14.90;9.93;;;9.60;79.60;;;;;;4977266;28;20245;-76
2022/10/09 07:33:38;;;;;;;15.40;9.47;;;9.70;79.80;;;;;;4994759;28;20576;-76
2022/10/09 07:36:07;;;;;;;17.30;10.80;;;9.70;80.00;;;;;;4997817;28;20462;-76
2022/10/09 07:38:35;;;;;;;20.20;10.20;;;9.80;79.90;;;;;;5001324;28;20742;-76
2022/10/09 07:41:05;;;;;;;21.47;11.67;;;9.80;79.80;;;;;;4999626;28;20472;-77
2022/10/09 07:43:35;;;;;;;20.30;10.73;;;9.80;79.80;;;;;;5016058;28;20957;-78
2022/10/09 07:46:06;;;;;;;18.50;12.40;;;9.80;79.80;;;;;;4998911;28;20730;-77
2022/10/09 07:48:35;;;;;;;21.30;10.93;;;9.70;79.90;;;;;;5000392;28;20488;-78
2022/10/09 07:51:08;;;;;;;19.70;12.20;;;9.80;80.10;;;;;;5002476;28;20460;-78
2022/10/09 07:53:37;;;;;;;24.80;13.60;;;9.80;80.40;;;;;;5010584;28;20461;-77
2022/10/09 07:56:06;;;;;;;19.63;11.97;;;9.90;80.30;;;;;;4996645;28;20457;-77
2022/10/09 07:58:35;;;;;;;15.57;9.90;;;9.90;80.40;;;;;;5000373;28;21017;-77
2022/10/09 08:01:06;;;;;;;18.60;12.20;;;10.00;80.50;;;;;;5001994;28;20464;-76
2022/10/09 08:03:34;;;;;;;15.40;10.23;;;10.00;80.50;;;;;;4998564;28;20460;-77
2022/10/09 08:06:02;;;;;;;14.50;9.57;;;10.00;80.50;;;;;;4998227;28;21010;-76
2022/10/09 08:08:30;;;;;;;17.30;12.63;;;10.00;80.50;;;;;;4995937;28;20550;-77
2022/10/09 08:10:58;;;;;;;15.77;9.80;;;10.00;80.60;;;;;;5001301;28;20461;-76
2022/10/09 08:13:26;;;;;;;18.80;10.60;;;10.00;80.70;;;;;;5000150;28;20492;-76
2022/10/09 08:15:58;;;;;;;15.90;11.07;;;10.00;80.80;;;;;;4995754;28;22355;-77
2022/10/09 08:18:27;;;;;;;17.10;9.50;;;10.10;81.00;;;;;;5012236;28;20477;-76
2022/10/09 08:21:00;;;;;;;16.53;10.40;;;10.20;81.10;;;;;;5003327;28;20547;-77
2022/10/09 08:23:28;;;;;;;18.50;10.43;;;10.30;80.90;;;;;;5000929;28;20540;-77
2022/10/09 08:25:56;;;;;;;16.53;10.23;;;10.40;80.90;;;;;;5012308;28;20596;-77
2022/10/09 08:28:24;;;;;;;23.43;11.53;;;10.40;80.80;;;;;;5009738;28;21316;-78
2022/10/09 08:30:53;;;;;;;16.00;9.90;;;10.40;80.70;;;;;;5012373;28;20536;-76
2022/10/09 08:33:22;;;;;;;16.63;9.57;;;10.40;80.60;;;;;;4994492;28;21014;-78
2022/10/09 08:35:53;;;;;;;15.13;8.87;;;10.30;80.60;;;;;;4996208;28;20496;-77
2022/10/09 08:38:21;;;;;;;16.33;10.40;;;10.30;80.70;;;;;;4998576;28;20562;-76
2022/10/09 08:41:13;;;;;;;22.93;11.30;;;10.30;80.80;;;;;;5001633;28;20547;-78
2022/10/09 08:43:47;;;;;;;18.27;11.60;;;10.20;81.10;;;;;;4996418;28;20472;-75
2022/10/09 08:46:22;;;;;;;17.27;11.37;;;10.20;81.20;;;;;;4996606;28;20500;-77
2022/10/09 08:48:51;;;;;;;17.73;12.00;;;10.20;81.50;;;;;;5012621;28;20527;-77
2022/10/09 08:51:24;;;;;;;17.57;11.10;;;10.20;81.60;;;;;;4996913;28;20465;-77
2022/10/09 08:53:58;;;;;;;18.90;12.47;;;10.20;81.80;;;;;;4996500;28;20461;-78
2022/10/09 08:56:28;;;;;;;21.30;11.30;;;10.20;81.70;;;;;;4996719;28;20508;-79
2022/10/09 08:58:57;;;;;;;19.27;11.97;;;10.20;81.80;;;;;;4996357;28;20480;-77
2022/10/09 09:01:33;;;;;;;16.47;11.50;;;10.20;81.70;;;;;;5000563;28;20475;-77
2022/10/09 09:04:32;;;;;;;21.30;14.00;;;10.20;81.90;;;;;;5012812;28;20816;-76
2022/10/09 09:07:10;;;;;;;19.53;13.60;;;10.20;82.10;;;;;;4994507;28;20487;-79
2022/10/09 09:09:47;;;;;;;22.73;14.07;;;10.20;82.20;;;;;;5008815;28;20560;-76
2022/10/09 09:12:21;;;;;;;21.00;13.23;;;10.30;82.50;;;;;;4994395;28;20469;-75
2022/10/09 09:15:15;;;;;;;21.33;14.17;;;10.40;82.40;;;;;;4995878;28;20469;-76
2022/10/09 09:17:53;;;;;;;18.17;12.53;;;10.50;82.60;;;;;;4992403;28;20542;-78
2022/10/09 09:20:25;;;;;;;26.10;12.93;;;10.60;82.60;;;;;;4994978;28;20457;-78
2022/10/09 09:22:57;;;;;;;17.57;12.60;;;10.60;82.60;;;;;;4990823;28;20488;-76
2022/10/09 09:25:28;;;;;;;19.13;12.90;;;10.70;82.80;;;;;;4993328;28;20477;-76
2022/10/09 09:28:01;;;;;;;19.10;12.00;;;10.80;83.10;;;;;;4993946;28;20824;-77
2022/10/09 09:30:35;;;;;;;20.47;12.10;;;10.80;83.00;;;;;;4995982;28;20457;-79
2022/10/09 09:33:14;;;;;;;15.23;10.77;;;10.90;83.20;;;;;;4995087;28;20468;-77
2022/10/09 09:35:49;;;;;;;27.30;12.03;;;11.10;83.10;;;;;;4996431;28;20511;-76
2022/10/09 09:38:18;;;;;;;17.67;9.93;;;11.20;83.00;;;;;;4993022;28;20616;-76
2022/10/09 09:40:47;;;;;;;15.97;10.13;;;11.30;83.00;;;;;;4994518;28;20998;-77
2022/10/09 09:43:18;;;;;;;20.63;11.47;;;11.40;83.30;;;;;;4994612;28;20469;-77
2022/10/09 09:45:47;;;;;;;17.73;10.20;;;11.50;83.40;;;;;;4997060;28;20485;-77
2022/10/09 09:48:20;;;;;;;13.80;8.90;;;11.60;83.50;;;;;;4990334;28;20490;-75
2022/10/09 09:50:53;;;;;;;16.20;8.70;;;11.70;83.40;;;;;;5012451;28;21020;-78
2022/10/09 09:53:45;;;;;;;12.20;6.70;;;11.80;83.40;;;;;;4996664;28;20465;-77
2022/10/09 09:56:13;;;;;;;11.03;6.60;;;11.90;83.40;;;;;;4997113;28;20457;-78
2022/10/09 09:58:45;;;;;;;10.93;5.93;;;12.00;83.30;;;;;;4991622;28;20485;-77
2022/10/09 10:01:21;;;;;;;14.40;5.33;;;12.20;83.40;;;;;;4994430;28;20457;-77
2022/10/09 10:03:51;;;;;;;9.43;4.40;;;12.30;82.30;;;;;;4993562;28;21088;-75
2022/10/09 10:06:22;;;;;;;9.37;4.03;;;12.40;82.40;;;;;;4995483;28;20881;-76
2022/10/09 10:09:05;;;;;;;6.60;3.30;;;12.40;81.50;;;;;;4992322;28;20571;-77
2022/10/09 10:11:34;;;;;;;9.67;4.53;;;12.60;81.70;;;;;;5010310;28;20461;-77
2022/10/09 10:14:07;;;;;;;8.10;3.50;;;12.60;81.00;;;;;;4996587;28;21013;-75
2022/10/09 10:16:37;;;;;;;7.50;3.50;;;12.70;81.10;;;;;;5010738;28;20525;-77
2022/10/09 10:19:06;;;;;;;7.90;4.00;;;12.70;80.30;;;;;;4998367;28;20488;-78
2022/10/09 10:21:40;;;;;;;11.23;5.03;;;12.80;79.90;;;;;;4996238;28;20496;-77
2022/10/09 10:24:15;;;;;;;11.80;3.67;;;12.90;80.40;;;;;;4995272;28;20473;-77
2022/10/09 10:26:47;;;;;;;8.70;3.73;;;13.00;80.20;;;;;;4995131;28;20479;-77
2022/10/09 10:29:18;;;;;;;8.70;3.73;;;13.10;79.60;;;;;;4998683;28;20554;-77
2022/10/09 10:31:52;;;;;;;6.60;3.57;;;13.10;78.90;;;;;;4997561;28;20497;-77
2022/10/09 10:34:24;;;;;;;8.43;3.77;;;13.20;79.10;;;;;;4996642;28;20458;-75
2022/10/09 10:36:59;;;;;;;6.97;3.37;;;13.20;78.00;;;;;;4994678;28;20453;-77
2022/10/09 10:39:37;;;;;;;7.30;3.90;;;13.30;78.50;;;;;;4994744;28;21126;-77
2022/10/09 10:42:11;;;;;;;9.40;3.67;;;13.40;78.00;;;;;;4993192;28;20973;-76
2022/10/09 10:44:48;;;;;;;8.23;3.10;;;13.40;76.90;;;;;;4994667;28;20464;-74
2022/10/09 10:47:21;;;;;;;6.40;3.00;;;13.50;78.00;;;;;;4996949;28;21023;-76
2022/10/09 10:49:53;;;;;;;9.20;3.03;;;13.60;76.90;;;;;;4998604;28;21069;-75
2022/10/09 10:52:38;;;;;;;7.60;3.00;;;13.60;75.40;;;;;;4992864;28;20460;-76
2022/10/09 10:55:25;;;;;;;8.00;3.23;;;13.70;75.70;;;;;;4992877;28;20976;-76
2022/10/09 10:58:05;;;;;;;14.67;5.27;;;13.70;74.80;;;;;;4993248;28;21141;-75
2022/10/09 11:00:40;;;;;;;8.13;3.20;;;13.80;75.90;;;;;;4993593;28;20457;-75
2022/10/09 11:03:35;;;;;;;13.20;5.47;;;13.90;76.20;;;;;;4994850;28;20455;-75
2022/10/09 11:06:11;;;;;;;6.43;3.00;;;14.00;75.80;;;;;;4996840;28;20532;-74
2022/10/09 11:08:50;;;;;;;7.33;3.70;;;14.00;75.60;;;;;;4996126;28;20527;-74
2022/10/09 11:11:25;;;;;;;9.20;3.23;;;14.10;75.60;;;;;;4997339;28;20501;-75
2022/10/09 11:14:04;;;;;;;9.33;3.00;;;14.10;75.30;;;;;;4999188;28;20461;-75
2022/10/09 11:16:47;;;;;;;6.03;3.10;;;14.20;75.00;;;;;;5002255;28;20455;-76
2022/10/09 11:19:57;;;;;;;9.33;2.90;;;14.20;74.90;;;;;;5000463;28;21094;-74
2022/10/09 11:22:40;;;;;;;10.70;3.37;;;14.30;74.30;;;;;;4996577;28;20452;-76
2022/10/09 11:25:21;;;;;;;5.13;2.63;;;14.30;73.40;;;;;;4998320;28;20464;-76
2022/10/09 11:27:55;;;;;;;5.90;2.30;;;14.40;74.10;;;;;;4999247;28;20978;-75
2022/10/09 11:30:25;;;;;;;6.20;2.27;;;14.50;73.40;;;;;;4998519;28;20487;-76
2022/10/09 11:32:58;;;;;;;6.67;2.67;;;14.50;73.20;;;;;;4998777;28;20457;-75
2022/10/09 11:35:30;;;;;;;6.40;2.93;;;14.50;72.60;;;;;;5000020;28;20472;-75
2022/10/09 11:38:01;;;;;;;5.97;2.20;;;14.50;70.70;;;;;;5018752;28;20458;-75
2022/10/09 11:40:32;;;;;;;9.40;2.60;;;14.60;71.80;;;;;;4998100;28;20609;-76
2022/10/09 11:43:11;;;;;;;9.67;4.30;;;14.60;71.70;;;;;;4998559;28;20457;-75
2022/10/09 11:45:47;;;;;;;8.70;2.23;;;14.60;70.80;;;;;;5000512;28;20536;-75
2022/10/09 11:48:21;;;;;;;8.33;3.20;;;14.70;70.70;;;;;;4995246;28;20540;-74
2022/10/09 11:51:00;;;;;;;11.43;5.67;;;14.80;70.40;;;;;;4999233;28;20491;-74
2022/10/09 11:53:33;;;;;;;8.17;3.77;;;14.80;70.30;;;;;;4998085;28;21284;-75
2022/10/09 11:56:04;;;;;;;6.00;2.70;;;14.90;70.40;;;;;;5000049;28;20471;-76
2022/10/09 11:58:34;;;;;;;4.43;2.00;;;14.90;70.20;;;;;;5004422;28;20485;-74
2022/10/09 12:01:13;;;;;;;5.80;1.93;;;15.00;70.00;;;;;;5012521;28;20683;-76
2022/10/09 12:03:42;;;;;;;6.07;2.13;;;15.00;69.60;;;;;;4999682;28;21308;-74
2022/10/09 12:06:12;;;;;;;7.87;2.30;;;15.10;69.60;;;;;;5000070;28;20883;-75
2022/10/09 12:08:43;;;;;;;5.00;1.73;;;15.10;69.40;;;;;;5000791;28;20488;-76
2022/10/09 12:11:14;;;;;;;6.20;2.20;;;15.10;68.80;;;;;;5013962;28;21005;-76
2022/10/09 12:13:50;;;;;;;6.70;2.30;;;15.20;69.20;;;;;;4997046;28;20943;-76
2022/10/09 12:16:38;;;;;;;6.80;2.87;;;15.30;68.90;;;;;;4998599;28;20750;-76
2022/10/09 12:19:22;;;;;;;5.80;2.50;;;15.30;68.60;;;;;;4999157;28;20477;-76
2022/10/09 12:22:00;;;;;;;5.00;2.13;;;15.30;68.70;;;;;;4995276;28;20461;-75
2022/10/09 12:24:33;;;;;;;5.27;2.17;;;15.40;68.00;;;;;;4999680;28;20522;-75
2022/10/09 12:27:03;;;;;;;6.57;2.80;;;15.40;68.30;;;;;;5000406;28;20477;-75
2022/10/09 12:29:39;;;;;;;5.33;2.60;;;15.40;68.10;;;;;;5018653;28;21018;-75
2022/10/09 12:32:14;;;;;;;7.07;2.67;;;15.50;67.80;;;;;;4994846;28;20466;-77
2022/10/09 12:34:47;;;;;;;5.83;2.33;;;15.50;67.60;;;;;;5000244;28;20464;-78
2022/10/09 12:37:17;;;;;;;6.80;2.57;;;15.50;67.40;;;;;;4998697;28;20466;-77
2022/10/09 12:39:47;;;;;;;5.57;2.60;;;15.60;67.70;;;;;;5000051;28;20496;-76
2022/10/09 12:42:20;;;;;;;5.80;2.93;;;15.60;67.60;;;;;;4999818;28;21044;-77
2022/10/09 12:44:52;;;;;;;5.93;2.27;;;15.60;67.00;;;;;;5000448;28;20465;-77
2022/10/09 12:47:25;;;;;;;9.53;3.13;;;15.70;67.20;;;;;;5001029;28;20564;-77
2022/10/09 12:50:01;;;;;;;6.67;3.10;;;15.70;67.00;;;;;;5012749;28;20487;-78
2022/10/09 12:52:31;;;;;;;7.87;3.00;;;15.70;67.10;;;;;;4998386;28;20461;-78
2022/10/09 12:55:00;;;;;;;5.93;2.67;;;15.80;66.70;;;;;;4996964;28;20453;-75
2022/10/09 12:57:29;;;;;;;8.77;2.50;;;15.80;66.40;;;;;;4991523;28;20524;-75
2022/10/09 12:59:59;;;;;;;8.97;2.90;;;15.90;66.70;;;;;;4997225;28;21025;-75
2022/10/09 13:02:27;;;;;;;8.07;2.83;;;15.90;66.60;;;;;;4993877;28;20465;-75